Metar z połowy godziny Komunikat METAR ze strony awiacja.imgw.pl Metar Mil EPPR METAR EPPR 261100Z 29008KT 9999 SCT021 BKN038 02/M02 Q1005 RMK 017 078 7/3=